sensor_id;sensor_type;location;lat;lon;timestamp;pressure;altitude;pressure_sealevel;temperature;humidity
5988;BME280;3021;51.000;6.980;2023-04-07T00:00:00;67215.72;;;8.23;100.00
5988;BME280;3021;51.000;6.980;2023-04-07T00:02:28;67217.84;;;8.23;100.00
5988;BME280;3021;51.000;6.980;2023-04-07T00:04:53;67219.16;;;8.26;100.00
5988;BME280;3021;51.000;6.980;2023-04-07T00:07:20;67222.47;;;8.27;100.00
5988;BME280;3021;51.000;6.980;2023-04-07T00:09:45;67213.56;;;8.24;100.00
5988;BME280;3021;51.000;6.980;2023-04-07T00:12:11;67215.41;;;8.18;100.00
5988;BME280;3021;51.000;6.980;2023-04-07T00:14:36;67202.44;;;8.11;100.00
5988;BME280;3021;51.000;6.980;2023-04-07T00:17:01;67215.41;;;8.18;100.00
5988;BME280;3021;51.000;6.980;2023-04-07T00:19:27;67211.09;;;8.19;100.00
5988;BME280;3021;51.000;6.980;2023-04-07T00:21:52;67217.28;;;8.22;100.00
5988;BME280;3021;51.000;6.980;2023-04-07T00:24:18;67210.94;;;8.17;100.00
5988;BME280;3021;51.000;6.980;2023-04-07T00:26:43;67210.38;;;8.16;100.00
5988;BME280;3021;51.000;6.980;2023-04-07T00:29:09;67213.41;;;8.21;100.00
5988;BME280;3021;51.000;6.980;2023-04-07T00:31:34;67216.72;;;8.22;100.00
5988;BME280;3021;51.000;6.980;2023-04-07T00:33:59;67223.63;;;8.28;100.00
5988;BME280;3021;51.000;6.980;2023-04-07T00:36:25;67223.19;;;8.30;100.00
5988;BME280;3021;51.000;6.980;2023-04-07T00:38:51;67226.53;;;8.30;100.00
5988;BME280;3021;51.000;6.980;2023-04-07T00:41:16;67222.06;;;8.29;100.00
5988;BME280;3021;51.000;6.980;2023-04-07T00:43:41;67226.09;;;8.33;100.00
5988;BME280;3021;51.000;6.980;2023-04-07T00:46:07;67228.81;;;8.33;100.00
5988;BME280;3021;51.000;6.980;2023-04-07T00:48:32;67220.75;;;8.25;100.00
5988;BME280;3021;51.000;6.980;2023-04-07T00:50:58;67221.91;;;8.26;100.00
5988;BME280;3021;51.000;6.980;2023-04-07T00:53:23;67225.94;;;8.30;100.00
5988;BME280;3021;51.000;6.980;2023-04-07T00:55:49;67232.28;;;8.36;100.00
5988;BME280;3021;51.000;6.980;2023-04-07T00:58:14;67232.44;;;8.38;100.00
5988;BME280;3021;51.000;6.980;2023-04-07T01:00:45;67239.22;;;8.42;100.00
5988;BME280;3021;51.000;6.980;2023-04-07T01:03:18;67229.41;;;8.33;100.00
5988;BME280;3021;51.000;6.980;2023-04-07T01:05:56;67231.72;;;8.35;100.00
5988;BME280;3021;51.000;6.980;2023-04-07T01:08:41;67239.38;;;8.44;100.00
5988;BME280;3021;51.000;6.980;2023-04-07T01:11:27;67243.84;;;8.46;100.00
5988;BME280;3021;51.000;6.980;2023-04-07T01:13:56;67243.84;;;8.46;100.00
5988;BME280;3021;51.000;6.980;2023-04-07T01:16:36;67247.31;;;8.49;100.00
5988;BME280;3021;51.000;6.980;2023-04-07T01:21:57;67243.97;;;8.48;100.00
5988;BME280;3021;51.000;6.980;2023-04-07T01:27:39;67241.13;;;8.46;100.00
5988;BME280;3021;51.000;6.980;2023-04-07T01:30:12;67245.56;;;8.47;100.00
5988;BME280;3021;51.000;6.980;2023-04-07T01:32:40;67241.50;;;8.44;100.00
5988;BME280;3021;51.000;6.980;2023-04-07T01:35:12;67240.69;;;8.48;100.00
5988;BME280;3021;51.000;6.980;2023-04-07T01:37:38;67245.13;;;8.50;100.00
5988;BME280;3021;51.000;6.980;2023-04-07T01:40:06;67249.75;;;8.54;100.00
5988;BME280;3021;51.000;6.980;2023-04-07T01:42:33;67248.03;;;8.52;100.00
5988;BME280;3021;51.000;6.980;2023-04-07T01:44:59;67250.31;;;8.54;100.00
5988;BME280;3021;51.000;6.980;2023-04-07T01:47:27;67255.94;;;8.57;100.00
5988;BME280;3021;51.000;6.980;2023-04-07T01:49:57;67259.00;;;8.62;100.00
5988;BME280;3021;51.000;6.980;2023-04-07T01:52:24;67262.44;;;8.65;100.00
5988;BME280;3021;51.000;6.980;2023-04-07T01:54:50;67267.63;;;8.70;100.00
5988;BME280;3021;51.000;6.980;2023-04-07T01:57:16;67261.88;;;8.64;100.00
5988;BME280;3021;51.000;6.980;2023-04-07T01:59:42;67261.88;;;8.64;100.00
5988;BME280;3021;51.000;6.980;2023-04-07T02:02:07;67264.63;;;8.64;100.00
5988;BME280;3021;51.000;6.980;2023-04-07T02:04:39;67265.91;;;8.68;100.00
5988;BME280;3021;51.000;6.980;2023-04-07T02:07:11;67268.78;;;8.71;100.00
5988;BME280;3021;51.000;6.980;2023-04-07T02:09:40;67269.38;;;8.71;100.00
5988;BME280;3021;51.000;6.980;2023-04-07T02:12:08;67270.53;;;8.72;100.00
5988;BME280;3021;51.000;6.980;2023-04-07T02:14:36;67275.16;;;8.76;100.00
5988;BME280;3021;51.000;6.980;2023-04-07T02:17:02;67276.88;;;8.78;100.00
5988;BME280;3021;51.000;6.980;2023-04-07T02:19:28;67276.88;;;8.78;100.00
5988;BME280;3021;51.000;6.980;2023-04-07T02:21:55;67280.78;;;8.79;100.00
5988;BME280;3021;51.000;6.980;2023-04-07T02:24:21;67286.38;;;8.81;100.00
5988;BME280;3021;51.000;6.980;2023-04-07T02:26:46;67283.78;;;8.84;100.00
5988;BME280;3021;51.000;6.980;2023-04-07T02:29:12;67282.66;;;8.83;100.00
5988;BME280;3021;51.000;6.980;2023-04-07T02:31:37;67285.38;;;8.83;100.00
5988;BME280;3021;51.000;6.980;2023-04-07T02:34:02;67280.34;;;8.81;100.00
5988;BME280;3021;51.000;6.980;2023-04-07T02:36:28;67283.22;;;8.84;100.00
5988;BME280;3021;51.000;6.980;2023-04-07T02:38:53;67280.34;;;8.81;100.00
5988;BME280;3021;51.000;6.980;2023-04-07T02:41:18;67283.22;;;8.84;100.00
5988;BME280;3021;51.000;6.980;2023-04-07T02:43:45;67287.84;;;8.88;100.00
5988;BME280;3021;51.000;6.980;2023-04-07T02:46:10;67276.31;;;8.77;100.00
5988;BME280;3021;51.000;6.980;2023-04-07T02:48:36;67276.88;;;8.78;100.00
5988;BME280;3021;51.000;6.980;2023-04-07T02:51:01;67263.03;;;8.65;100.00
5988;BME280;3021;51.000;6.980;2023-04-07T02:53:26;67272.09;;;8.71;100.00
5988;BME280;3021;51.000;6.980;2023-04-07T02:55:52;67284.38;;;8.85;100.00
5988;BME280;3021;51.000;6.980;2023-04-07T02:58:17;67287.25;;;8.87;100.00
5988;BME280;3021;51.000;6.980;2023-04-07T03:00:42;67285.69;;;8.88;100.00
5988;BME280;3021;51.000;6.980;2023-04-07T03:03:08;67293.59;;;8.93;100.00
5988;BME280;3021;51.000;6.980;2023-04-07T03:05:33;67295.91;;;8.95;100.00
5988;BME280;3021;51.000;6.980;2023-04-07T03:07:59;67302.69;;;8.98;100.00
5988;BME280;3021;51.000;6.980;2023-04-07T03:10:24;67299.81;;;8.96;100.00
5988;BME280;3021;51.000;6.980;2023-04-07T03:12:50;67308.47;;;9.04;100.00
5988;BME280;3021;51.000;6.980;2023-04-07T03:15:15;67306.28;;;9.04;100.00
5988;BME280;3021;51.000;6.980;2023-04-07T03:17:40;67306.28;;;9.04;100.00
5988;BME280;3021;51.000;6.980;2023-04-07T03:20:06;67312.66;;;9.10;100.00
5988;BME280;3021;51.000;6.980;2023-04-07T03:22:31;67305.72;;;9.04;100.00
5988;BME280;3021;51.000;6.980;2023-04-07T03:24:57;67302.28;;;9.01;100.00
5988;BME280;3021;51.000;6.980;2023-04-07T03:27:22;67305.72;;;9.04;100.00
5988;BME280;3021;51.000;6.980;2023-04-07T03:29:47;67304.56;;;9.03;100.00
5988;BME280;3021;51.000;6.980;2023-04-07T03:32:15;67301.69;;;9.00;100.00
5988;BME280;3021;51.000;6.980;2023-04-07T03:34:41;67298.66;;;8.95;100.00
5988;BME280;3021;51.000;6.980;2023-04-07T03:37:06;67302.84;;;9.01;100.00
5988;BME280;3021;51.000;6.980;2023-04-07T03:39:31;67306.28;;;9.04;100.00
5988;BME280;3021;51.000;6.980;2023-04-07T03:41:56;67313.25;;;9.10;100.00
5988;BME280;3021;51.000;6.980;2023-04-07T03:44:22;67305.72;;;9.04;100.00
5988;BME280;3021;51.000;6.980;2023-04-07T03:46:47;67305.72;;;9.04;100.00
5988;BME280;3021;51.000;6.980;2023-04-07T03:49:14;67304.56;;;9.03;100.00
5988;BME280;3021;51.000;6.980;2023-04-07T03:51:40;67302.84;;;9.01;100.00
5988;BME280;3021;51.000;6.980;2023-04-07T03:54:05;67302.28;;;9.01;100.00
5988;BME280;3021;51.000;6.980;2023-04-07T03:56:31;67303.41;;;9.02;100.00
5988;BME280;3021;51.000;6.980;2023-04-07T03:58:56;67294.19;;;8.93;100.00
5988;BME280;3021;51.000;6.980;2023-04-07T04:01:22;67287.41;;;8.90;100.00
5988;BME280;3021;51.000;6.980;2023-04-07T04:03:48;67288.84;;;8.86;100.00
5988;BME280;3021;51.000;6.980;2023-04-07T04:06:13;67290.72;;;8.90;100.00
5988;BME280;3021;51.000;6.980;2023-04-07T04:08:39;67291.88;;;8.91;100.00
5988;BME280;3021;51.000;6.980;2023-04-07T04:11:04;67295.19;;;8.92;100.00
5988;BME280;3021;51.000;6.980;2023-04-07T04:13:30;67292.31;;;8.89;100.00
5988;BME280;3021;51.000;6.980;2023-04-07T04:15:55;67282.66;;;8.83;100.00
5988;BME280;3021;51.000;6.980;2023-04-07T04:18:21;67286.13;;;8.86;100.00
5988;BME280;3021;51.000;6.980;2023-04-07T04:20:46;67288.41;;;8.88;100.00
5988;BME280;3021;51.000;6.980;2023-04-07T04:23:12;67292.47;;;8.92;100.00
5988;BME280;3021;51.000;6.980;2023-04-07T04:25:38;67293.03;;;8.92;100.00
5988;BME280;3021;51.000;6.980;2023-04-07T04:28:05;67295.19;;;8.92;100.00
5988;BME280;3021;51.000;6.980;2023-04-07T04:30:30;67301.69;;;9.00;100.00
5988;BME280;3021;51.000;6.980;2023-04-07T04:32:56;67294.91;;;8.96;100.00
5988;BME280;3021;51.000;6.980;2023-04-07T04:35:21;67298.81;;;8.97;100.00
5988;BME280;3021;51.000;6.980;2023-04-07T04:37:47;67281.66;;;8.85;100.00
5988;BME280;3021;51.000;6.980;2023-04-07T04:40:13;67281.91;;;8.80;100.00
5988;BME280;3021;51.000;6.980;2023-04-07T04:42:38;67286.13;;;8.86;100.00
5988;BME280;3021;51.000;6.980;2023-04-07T04:45:04;67285.53;;;8.86;100.00
5988;BME280;3021;51.000;6.980;2023-04-07T04:47:30;67288.84;;;8.86;100.00
5988;BME280;3021;51.000;6.980;2023-04-07T04:49:56;67281.06;;;8.84;100.00
5988;BME280;3021;51.000;6.980;2023-04-07T04:52:21;67294.59;;;8.91;100.00
5988;BME280;3021;51.000;6.980;2023-04-07T04:54:46;67282.66;;;8.83;100.00
5988;BME280;3021;51.000;6.980;2023-04-07T04:57:12;67281.06;;;8.84;100.00
5988;BME280;3021;51.000;6.980;2023-04-07T04:59:37;67281.66;;;8.85;100.00
5988;BME280;3021;51.000;6.980;2023-04-07T05:02:04;67278.59;;;8.79;100.00
5988;BME280;3021;51.000;6.980;2023-04-07T05:04:30;67279.31;;;8.82;100.00
5988;BME280;3021;51.000;6.980;2023-04-07T05:06:55;67282.06;;;8.82;100.00
5988;BME280;3021;51.000;6.980;2023-04-07T05:09:21;67274.72;;;8.78;100.00
5988;BME280;3021;51.000;6.980;2023-04-07T05:11:46;67278.59;;;8.79;100.00
5988;BME280;3021;51.000;6.980;2023-04-07T05:14:12;67268.97;;;8.73;100.00
5988;BME280;3021;51.000;6.980;2023-04-07T05:16:37;67265.34;;;8.68;100.00
5988;BME280;3021;51.000;6.980;2023-04-07T05:19:02;67271.69;;;8.73;100.00
5988;BME280;3021;51.000;6.980;2023-04-07T05:21:27;67266.47;;;8.69;100.00
5988;BME280;3021;51.000;6.980;2023-04-07T05:23:53;67261.13;;;8.61;100.00
5988;BME280;3021;51.000;6.980;2023-04-07T05:26:18;67256.09;;;8.59;100.00
5988;BME280;3021;51.000;6.980;2023-04-07T05:28:43;67260.13;;;8.63;100.00
5988;BME280;3021;51.000;6.980;2023-04-07T05:31:09;67251.34;;;8.53;100.00
5988;BME280;3021;51.000;6.980;2023-04-07T05:33:34;67250.31;;;8.54;100.00
5988;BME280;3021;51.000;6.980;2023-04-07T05:36:00;67253.22;;;8.57;100.00
5988;BME280;3021;51.000;6.980;2023-04-07T05:38:25;67249.19;;;8.53;100.00
5988;BME280;3021;51.000;6.980;2023-04-07T05:40:50;67252.06;;;8.56;100.00
5988;BME280;3021;51.000;6.980;2023-04-07T05:43:19;67254.94;;;8.58;100.00
5988;BME280;3021;51.000;6.980;2023-04-07T05:45:44;67251.34;;;8.53;100.00
5988;BME280;3021;51.000;6.980;2023-04-07T05:48:09;67244.56;;;8.49;100.00
5988;BME280;3021;51.000;6.980;2023-04-07T05:50:35;67253.06;;;8.54;100.00
5988;BME280;3021;51.000;6.980;2023-04-07T05:53:01;67257.13;;;8.58;100.00
5988;BME280;3021;51.000;6.980;2023-04-07T05:55:26;67251.50;;;8.55;100.00
5988;BME280;3021;51.000;6.980;2023-04-07T05:57:54;67263.31;;;8.61;100.00
5988;BME280;3021;51.000;6.980;2023-04-07T06:00:19;67255.94;;;8.57;100.00
5988;BME280;3021;51.000;6.980;2023-04-07T06:02:45;67254.94;;;8.58;100.00
5988;BME280;3021;51.000;6.980;2023-04-07T06:05:10;67252.06;;;8.56;100.00
5988;BME280;3021;51.000;6.980;2023-04-07T06:07:36;67257.41;;;8.63;100.00
5988;BME280;3021;51.000;6.980;2023-04-07T06:10:01;67266.34;;;8.66;100.00
5988;BME280;3021;51.000;6.980;2023-04-07T06:12:26;67265.91;;;8.68;100.00
5988;BME280;3021;51.000;6.980;2023-04-07T06:14:53;67269.09;;;8.66;100.00
5988;BME280;3021;51.000;6.980;2023-04-07T06:17:19;67267.63;;;8.70;100.00
5988;BME280;3021;51.000;6.980;2023-04-07T06:19:44;67272.81;;;8.74;100.00
5988;BME280;3021;51.000;6.980;2023-04-07T06:22:10;67269.53;;;8.74;100.00
5988;BME280;3021;51.000;6.980;2023-04-07T06:24:35;67269.97;;;8.72;100.00
5988;BME280;3021;51.000;6.980;2023-04-07T06:27:01;67277.44;;;8.78;100.00
5988;BME280;3021;51.000;6.980;2023-04-07T06:29:36;67272.81;;;8.74;100.00
5988;BME280;3021;51.000;6.980;2023-04-07T06:32:02;67271.09;;;8.73;100.00
5988;BME280;3021;51.000;6.980;2023-04-07T06:34:27;67277.03;;;8.80;100.00
5988;BME280;3021;51.000;6.980;2023-04-07T06:36:52;67268.78;;;8.71;100.00
5988;BME280;3021;51.000;6.980;2023-04-07T06:39:18;67269.97;;;8.72;100.00
5988;BME280;3021;51.000;6.980;2023-04-07T06:41:44;67265.19;;;8.65;100.00
5988;BME280;3021;51.000;6.980;2023-04-07T06:44:11;67267.63;;;8.70;100.00
5988;BME280;3021;51.000;6.980;2023-04-07T06:46:36;67264.75;;;8.67;100.00
5988;BME280;3021;51.000;6.980;2023-04-07T06:49:02;67270.94;;;8.70;100.00
5988;BME280;3021;51.000;6.980;2023-04-07T06:51:28;67275.88;;;8.79;100.00
5988;BME280;3021;51.000;6.980;2023-04-07T06:53:53;67272.53;;;8.69;100.00
5988;BME280;3021;51.000;6.980;2023-04-07T06:56:22;67273.25;;;8.72;100.00
5988;BME280;3021;51.000;6.980;2023-04-07T06:58:47;67277.88;;;8.76;100.00
5988;BME280;3021;51.000;6.980;2023-04-07T07:01:12;67276.31;;;8.77;100.00
5988;BME280;3021;51.000;6.980;2023-04-07T07:03:38;67278.44;;;8.77;100.00
5988;BME280;3021;51.000;6.980;2023-04-07T07:06:03;67282.50;;;8.80;100.00
5988;BME280;3021;51.000;6.980;2023-04-07T07:08:29;67279.19;;;8.80;100.00
5988;BME280;3021;51.000;6.980;2023-04-07T07:10:55;67279.75;;;8.80;100.00
5988;BME280;3021;51.000;6.980;2023-04-07T07:13:22;67268.78;;;8.71;100.00
5988;BME280;3021;51.000;6.980;2023-04-07T07:15:48;67278.59;;;8.79;100.00
5988;BME280;3021;51.000;6.980;2023-04-07T07:18:13;67282.06;;;8.82;100.00
5988;BME280;3021;51.000;6.980;2023-04-07T07:20:38;67279.47;;;8.85;100.00
5988;BME280;3021;51.000;6.980;2023-04-07T07:23:04;67289.56;;;8.89;100.00
5988;BME280;3021;51.000;6.980;2023-04-07T07:25:29;67295.91;;;8.95;100.00
5988;BME280;3021;51.000;6.980;2023-04-07T07:27:54;67300.53;;;8.99;100.00
5988;BME280;3021;51.000;6.980;2023-04-07T07:30:20;67304.56;;;9.03;100.00
5988;BME280;3021;51.000;6.980;2023-04-07T07:32:46;67304.00;;;9.02;100.00
5988;BME280;3021;51.000;6.980;2023-04-07T07:35:12;67298.94;;;9.00;100.00
5988;BME280;3021;51.000;6.980;2023-04-07T07:37:37;67306.28;;;9.04;100.00
5988;BME280;3021;51.000;6.980;2023-04-07T07:40:03;67314.38;;;9.11;100.00
5988;BME280;3021;51.000;6.980;2023-04-07T07:42:29;67321.88;;;9.18;100.00
5988;BME280;3021;51.000;6.980;2023-04-07T07:44:55;67322.03;;;9.21;100.00
5988;BME280;3021;51.000;6.980;2023-04-07T07:47:21;67330.53;;;9.26;100.00
5988;BME280;3021;51.000;6.980;2023-04-07T07:49:46;67332.25;;;9.27;100.00
5988;BME280;3021;51.000;6.980;2023-04-07T07:52:11;67336.31;;;9.31;100.00
5988;BME280;3021;51.000;6.980;2023-04-07T07:54:37;67350.75;;;9.44;100.00
5988;BME280;3021;51.000;6.980;2023-04-07T07:57:02;67350.75;;;9.44;100.00
5988;BME280;3021;51.000;6.980;2023-04-07T07:59:29;67355.94;;;9.48;100.00
5988;BME280;3021;51.000;6.980;2023-04-07T08:01:54;67353.03;;;9.46;100.00
5988;BME280;3021;51.000;6.980;2023-04-07T08:04:19;67331.13;;;9.26;100.00
5988;BME280;3021;51.000;6.980;2023-04-07T08:06:47;67350.03;;;9.41;100.00
5988;BME280;3021;51.000;6.980;2023-04-07T08:09:12;67358.81;;;9.51;100.00
5988;BME280;3021;51.000;6.980;2023-04-07T08:11:38;67370.38;;;9.61;100.00
5988;BME280;3021;51.000;6.980;2023-04-07T08:14:03;67365.19;;;9.57;100.00
5988;BME280;3021;51.000;6.980;2023-04-07T08:16:28;67374.28;;;9.62;100.00
5988;BME280;3021;51.000;6.980;2023-04-07T08:18:54;67376.56;;;9.64;100.00
5988;BME280;3021;51.000;6.980;2023-04-07T08:21:19;67385.81;;;9.73;100.00
5988;BME280;3021;51.000;6.980;2023-04-07T08:23:45;67391.16;;;9.80;100.00
5988;BME280;3021;51.000;6.980;2023-04-07T08:26:10;67371.09;;;9.64;100.00
5988;BME280;3021;51.000;6.980;2023-04-07T08:28:35;67372.69;;;9.63;100.00
5988;BME280;3021;51.000;6.980;2023-04-07T08:31:01;67369.22;;;9.60;100.00
5988;BME280;3021;51.000;6.980;2023-04-07T08:33:26;67352.47;;;9.45;100.00
5988;BME280;3021;51.000;6.980;2023-04-07T08:35:52;67365.91;;;9.60;100.00
5988;BME280;3021;51.000;6.980;2023-04-07T08:38:17;67381.34;;;9.71;100.00
5988;BME280;3021;51.000;6.980;2023-04-07T08:40:42;67370.97;;;9.62;100.00
5988;BME280;3021;51.000;6.980;2023-04-07T08:43:08;67384.25;;;9.74;100.00
5988;BME280;3021;51.000;6.980;2023-04-07T08:45:38;67387.69;;;9.77;100.00
5988;BME280;3021;51.000;6.980;2023-04-07T08:48:09;67387.53;;;9.74;100.00
5988;BME280;3021;51.000;6.980;2023-04-07T08:50:37;67414.56;;;10.06;100.00
5988;BME280;3021;51.000;6.980;2023-04-07T08:53:06;67457.03;;;10.38;100.00
5988;BME280;3021;51.000;6.980;2023-04-07T08:55:34;67468.00;;;10.48;100.00
5988;BME280;3021;51.000;6.980;2023-04-07T08:58:00;67458.91;;;10.43;100.00
5988;BME280;3021;51.000;6.980;2023-04-07T09:00:26;67463.53;;;10.47;100.00
5988;BME280;3021;51.000;6.980;2023-04-07T09:02:52;67429.28;;;10.14;100.00
5988;BME280;3021;51.000;6.980;2023-04-07T09:05:17;67444.88;;;10.28;100.00
5988;BME280;3021;51.000;6.980;2023-04-07T09:07:43;67450.81;;;10.35;100.00
5988;BME280;3021;51.000;6.980;2023-04-07T09:10:08;67470.34;;;10.50;100.00
5988;BME280;3021;51.000;6.980;2023-04-07T09:12:34;67490.53;;;10.68;100.00
5988;BME280;3021;51.000;6.980;2023-04-07T09:15:00;67494.00;;;10.71;100.00
5988;BME280;3021;51.000;6.980;2023-04-07T09:17:26;67483.03;;;10.62;100.00
5988;BME280;3021;51.000;6.980;2023-04-07T09:19:55;67520.59;;;10.95;100.00
5988;BME280;3021;51.000;6.980;2023-04-07T09:22:37;67542.13;;;11.17;100.00
5988;BME280;3021;51.000;6.980;2023-04-07T09:27:35;67552.97;;;11.24;100.00
5988;BME280;3021;51.000;6.980;2023-04-07T09:30:10;67528.13;;;11.02;100.00
5988;BME280;3021;51.000;6.980;2023-04-07T09:32:37;67530.44;;;11.04;100.00
5988;BME280;3021;51.000;6.980;2023-04-07T09:35:06;67523.78;;;11.03;100.00
5988;BME280;3021;51.000;6.980;2023-04-07T09:37:31;67549.06;;;11.23;100.00
5988;BME280;3021;51.000;6.980;2023-04-07T09:39:57;67555.88;;;11.27;100.00
5988;BME280;3021;51.000;6.980;2023-04-07T09:42:23;67516.84;;;10.97;100.00
5988;BME280;3021;51.000;6.980;2023-04-07T09:44:49;67501.53;;;10.78;100.00
5988;BME280;3021;51.000;6.980;2023-04-07T09:47:15;67494.00;;;10.71;100.00
5988;BME280;3021;51.000;6.980;2023-04-07T09:49:51;67487.22;;;10.68;100.00
5988;BME280;3021;51.000;6.980;2023-04-07T09:52:18;67476.69;;;10.56;100.00
5988;BME280;3021;51.000;6.980;2023-04-07T09:54:45;67489.13;;;10.72;100.00
5988;BME280;3021;51.000;6.980;2023-04-07T09:57:12;67495.16;;;10.72;100.00
5988;BME280;3021;51.000;6.980;2023-04-07T09:59:43;67523.50;;;10.98;100.00
5988;BME280;3021;51.000;6.980;2023-04-07T10:02:12;67528.84;;;11.05;100.00
5988;BME280;3021;51.000;6.980;2023-04-07T10:04:37;67512.50;;;10.88;100.00
5988;BME280;3021;51.000;6.980;2023-04-07T10:07:04;67490.69;;;10.71;100.00
5988;BME280;3021;51.000;6.980;2023-04-07T10:09:30;67489.41;;;10.67;100.00
5988;BME280;3021;51.000;6.980;2023-04-07T10:11:57;67487.66;;;10.66;100.00
5988;BME280;3021;51.000;6.980;2023-04-07T10:14:34;67472.63;;;10.52;100.00
5988;BME280;3021;51.000;6.980;2023-04-07T10:17:02;67452.41;;;10.34;100.00
5988;BME280;3021;51.000;6.980;2023-04-07T10:19:31;67442.72;;;10.28;100.00
5988;BME280;3021;51.000;6.980;2023-04-07T10:21:58;67435.63;;;10.19;100.00
5988;BME280;3021;51.000;6.980;2023-04-07T10:27:06;67420.03;;;10.06;100.00
5988;BME280;3021;51.000;6.980;2023-04-07T10:29:40;67421.91;;;10.10;100.00
5988;BME280;3021;51.000;6.980;2023-04-07T10:32:07;67425.25;;;10.10;100.00
5988;BME280;3021;51.000;6.980;2023-04-07T10:37:17;67425.25;;;10.10;100.00
5988;BME280;3021;51.000;6.980;2023-04-07T10:39:45;67415.41;;;10.01;100.00
5988;BME280;3021;51.000;6.980;2023-04-07T10:45:06;67436.81;;;10.20;100.00
5988;BME280;3021;51.000;6.980;2023-04-07T10:47:32;67463.53;;;10.47;100.00
5988;BME280;3021;51.000;6.980;2023-04-07T10:50:22;67481.88;;;10.61;100.00
5988;BME280;3021;51.000;6.980;2023-04-07T10:53:01;67467.84;;;10.46;100.00
5988;BME280;3021;51.000;6.980;2023-04-07T10:55:36;67431.72;;;10.18;100.00
5988;BME280;3021;51.000;6.980;2023-04-07T10:58:24;67433.34;;;10.17;100.00
5988;BME280;3021;51.000;6.980;2023-04-07T11:03:40;67444.59;;;10.32;100.00
5988;BME280;3021;51.000;6.980;2023-04-07T11:06:13;67448.50;;;10.33;100.00
5988;BME280;3021;51.000;6.980;2023-04-07T11:08:45;67449.50;;;10.32;100.00
5988;BME280;3021;51.000;6.980;2023-04-07T11:11:13;67457.03;;;10.38;100.00
5988;BME280;3021;51.000;6.980;2023-04-07T11:13:46;67450.66;;;10.33;100.00
5988;BME280;3021;51.000;6.980;2023-04-07T11:16:12;67460.50;;;10.42;100.00
5988;BME280;3021;51.000;6.980;2023-04-07T11:18:39;67480.00;;;10.57;100.00
5988;BME280;3021;51.000;6.980;2023-04-07T11:21:05;67494.16;;;10.74;100.00
5988;BME280;3021;51.000;6.980;2023-04-07T11:23:42;67509.31;;;10.90;100.00
5988;BME280;3021;51.000;6.980;2023-04-07T11:26:09;67539.84;;;11.15;100.00
5988;BME280;3021;51.000;6.980;2023-04-07T11:28:44;67546.19;;;11.20;100.00
5988;BME280;3021;51.000;6.980;2023-04-07T11:31:10;67552.41;;;11.23;100.00
5988;BME280;3021;51.000;6.980;2023-04-07T11:33:36;67538.81;;;11.16;100.00
5988;BME280;3021;51.000;6.980;2023-04-07T11:36:06;67527.53;;;11.01;100.00
5988;BME280;3021;51.000;6.980;2023-04-07T11:38:36;67516.56;;;10.92;100.00
5988;BME280;3021;51.000;6.980;2023-04-07T11:41:12;67507.75;;;10.81;100.00
5988;BME280;3021;51.000;6.980;2023-04-07T11:43:38;67498.63;;;10.76;100.00
5988;BME280;3021;51.000;6.980;2023-04-07T11:46:13;67513.22;;;10.91;100.00
5988;BME280;3021;51.000;6.980;2023-04-07T11:48:41;67569.75;;;11.39;100.00
5988;BME280;3021;51.000;6.980;2023-04-07T11:51:15;67577.25;;;11.46;100.00
5988;BME280;3021;51.000;6.980;2023-04-07T11:53:41;67624.84;;;11.90;100.00
5988;BME280;3021;51.000;6.980;2023-04-07T11:56:08;67618.34;;;11.82;100.00
5988;BME280;3021;51.000;6.980;2023-04-07T11:58:37;67565.69;;;11.35;100.00
5988;BME280;3021;51.000;6.980;2023-04-07T12:01:05;67522.03;;;11.01;100.00
5988;BME280;3021;51.000;6.980;2023-04-07T12:03:36;67493.44;;;10.71;100.00
5988;BME280;3021;51.000;6.980;2023-04-07T12:06:02;67486.50;;;10.65;100.00
5988;BME280;3021;51.000;6.980;2023-04-07T12:08:39;67450.81;;;10.35;100.00
5988;BME280;3021;51.000;6.980;2023-04-07T12:11:05;67465.84;;;10.49;100.00
5988;BME280;3021;51.000;6.980;2023-04-07T12:13:33;67479.00;;;10.58;100.00
5988;BME280;3021;51.000;6.980;2023-04-07T12:15:59;67499.94;;;10.79;100.00
5988;BME280;3021;51.000;6.980;2023-04-07T12:18:27;67534.63;;;11.10;100.00
5988;BME280;3021;51.000;6.980;2023-04-07T12:20:52;67602.13;;;11.68;100.00
5988;BME280;3021;51.000;6.980;2023-04-07T12:23:18;67645.53;;;12.06;100.00
5988;BME280;3021;51.000;6.980;2023-04-07T12:25:43;67664.66;;;12.23;100.00
5988;BME280;3021;51.000;6.980;2023-04-07T12:28:11;67688.94;;;12.45;100.00
5988;BME280;3021;51.000;6.980;2023-04-07T12:30:37;67713.41;;;12.69;100.00
5988;BME280;3021;51.000;6.980;2023-04-07T12:33:06;67730.19;;;12.84;100.00
5988;BME280;3021;51.000;6.980;2023-04-07T12:35:31;67694.88;;;12.53;100.00
5988;BME280;3021;51.000;6.980;2023-04-07T12:37:57;67671.00;;;12.29;100.00
5988;BME280;3021;51.000;6.980;2023-04-07T12:40:23;67638.75;;;12.03;100.00
5988;BME280;3021;51.000;6.980;2023-04-07T12:42:48;67630.06;;;11.95;100.00
5988;BME280;3021;51.000;6.980;2023-04-07T12:45:14;67663.47;;;12.22;100.00
5988;BME280;3021;51.000;6.980;2023-04-07T12:47:39;67690.13;;;12.46;100.00
5988;BME280;3021;51.000;6.980;2023-04-07T12:50:05;67707.03;;;12.64;100.00
5988;BME280;3021;51.000;6.980;2023-04-07T12:52:31;67698.22;;;12.53;100.00
5988;BME280;3021;51.000;6.980;2023-04-07T12:54:57;67716.16;;;12.69;100.00
5988;BME280;3021;51.000;6.980;2023-04-07T12:57:22;67700.53;;;12.55;100.00
5988;BME280;3021;51.000;6.980;2023-04-07T12:59:48;67664.78;;;12.26;100.00
5988;BME280;3021;51.000;6.980;2023-04-07T13:02:13;67637.16;;;12.04;100.00
5988;BME280;3021;51.000;6.980;2023-04-07T13:04:42;67626.75;;;11.95;100.00
5988;BME280;3021;51.000;6.980;2023-04-07T13:07:11;67614.88;;;11.79;100.00
5988;BME280;3021;51.000;6.980;2023-04-07T13:09:36;67626.44;;;11.89;100.00
5988;BME280;3021;51.000;6.980;2023-04-07T13:12:01;67651.31;;;12.12;100.00
5988;BME280;3021;51.000;6.980;2023-04-07T13:14:27;67653.19;;;12.16;100.00
5988;BME280;3021;51.000;6.980;2023-04-07T13:16:52;67663.47;;;12.22;100.00
5988;BME280;3021;51.000;6.980;2023-04-07T13:19:17;67676.22;;;12.34;100.00
5988;BME280;3021;51.000;6.980;2023-04-07T13:21:43;67646.97;;;12.13;100.00
5988;BME280;3021;51.000;6.980;2023-04-07T13:24:08;67638.16;;;12.02;100.00
5988;BME280;3021;51.000;6.980;2023-04-07T13:26:33;67684.47;;;12.43;100.00
5988;BME280;3021;51.000;6.980;2023-04-07T13:28:59;67715.84;;;12.74;100.00
5988;BME280;3021;51.000;6.980;2023-04-07T13:31:24;67746.25;;;12.96;100.00
5988;BME280;3021;51.000;6.980;2023-04-07T13:33:50;67739.91;;;12.90;100.00